Sheridan Lake, CO (81071)

9:32 AM MDT en Julio 31, 2014 (GMT -0600)
Tribune (KKSTRIBU2) Alt 3600 ft | 38.47 °N, 101.75 °W | Change Station

Current weather conditions updated 2 minutes ago

Overcast
Nublado
72.0 ° F
Sensación térmica 76 ° F
N
2.0
Viento Variable Viento desde NNO
Gusts 2.0 mph

Hoy se prevé un día Mucho más cálido que ayer.

Hoy
Alta -- | Baja -- ° F
--% Posibilidad de precipitaciones
Ayer
Alta -- | Baja -- ° F
Precip. -- pul
5:49 AM 7:59 PM
Creciente, 19% visible
Presión 30.16 pul
Visibilidad 7.0 Millas
Nubes Baja 4900 ft
Nublado 10000 ft
Índice de calor 76 ° F
Punto de rocío 57 ° F
Humedad 60%
Precipitaciones 0.00 pul
Espesor de la nieve No disponible.
UV 1 de una escala de 12
Polen 6.30 de una escala de 12
Calidad del aire No disponible.
Flu Activity No disponible.
METAR KLAA 311453Z AUTO 29003KT 7SM FEW049 OVC100 18/16 A3025 RMK AO2 SLP213 T01830156 53008

More Conditions Fewer Conditions

Presión 30.16 pul
Visibilidad 7.0 Millas
Nubes Baja 4900 ft
Nublado 10000 ft
Índice de calor 76 ° F
Punto de rocío 57 ° F
Humedad 60%
Precipitaciones 0.00 pul
Espesor de la nieve No disponible.
UV 1 de una escala de 12
Polen 6.30 de una escala de 12
Calidad del aire No disponible.
Flu Activity No disponible.
METAR KLAA 311453Z AUTO 29003KT 7SM FEW049 OVC100 18/16 A3025 RMK AO2 SLP213 T01830156 53008

More Conditions Fewer Conditions

10-Day Weather Forecast

Almanac

Astronomía

Jul. 31, 2014 Salida Puesta
Hora real 5:49 AM MDT 7:59 PM MDT
Crepúsculo civil 5:20 AM MDT 8:29 PM MDT
Crepúsculo náutico 4:44 AM MDT 9:05 PM MDT
Crepúsculo astronómico 4:04 AM MDT 9:44 PM MDT
Luna 10:15 AM MDT 10:18 PM MDT
Horas de luz 15h 08m
Horas de luz
14h 09m
Tomorrow will be 1m 52s shorter.
Creciente, 19% of the Moon is Illuminated
Hoy
Creciente
Ago 3
Cuarto creciente
Ago 10
Luna llena
Ago 17
Cuarto menguante
Ago 25
Nueva

Extremos de hoy

Máximos del estado Bajos del estado

Community

WunderPhotos

Upload Photos

1,739,357 ¡fotos cargadas!

Nearby

Grosos de nieve

Estación Profundido Altura
Apishapa 0 in 10000 ft
Medano Pass 0 in 9620 ft
Ute Creek 0 in 10650 ft
Trinchera 2 in 10860 ft
Echo Lake 0 in 10600 ft

Actividad de terremotos

Ciudad Distance Mag. Tiempo y dato
No hay informes recientes de la actividad sísmica.
Magnitud mínima muestra es 2,5.

Temperaturas de aguas costeras

Lugar Temperatura
Sin partes meteorológicos de las estaciones

Estaciones meteorológicas cercanas

Ubicación de la estación Temp. Índice de calor Punto de rocío Humedad Viento Precip. Alt Actualizado Tipo
Tribune, Tribune, KS 72.0 ° F 76 ° F 57 ° F 60% NNO  a  2.0 mph 0.00 pul / hr 3600 ft 9:30 AM MDT Normal
Musick on 196, Holly, CO 65.2 ° F - 63 ° F 91% Oeste  a  0.0 mph 0.00 pul / hr 3579 ft 9:25 AM MDT Normal

Show More Stations Show Fewer Stations